createdAt,value
2019-02-02T00:00:39.089Z,105.50
2019-02-02T00:03:07.928Z,98.03
2019-02-02T00:05:36.612Z,100.83
2019-02-02T00:08:06.623Z,98.93
2019-02-02T00:10:35.235Z,104.37
2019-02-02T00:13:04.126Z,98.37
2019-02-02T00:15:32.844Z,103.87
2019-02-02T00:18:01.477Z,99.27
2019-02-02T00:20:30.131Z,98.33
2019-02-02T00:22:58.784Z,99.90
2019-02-02T00:25:27.398Z,102.20
2019-02-02T00:27:56.086Z,95.80
2019-02-02T00:30:24.721Z,103.67
2019-02-02T00:32:53.339Z,103.43
2019-02-02T00:35:21.945Z,99.17
2019-02-02T00:37:50.655Z,101.90
2019-02-02T00:40:20.917Z,97.27
2019-02-02T00:42:49.630Z,106.97
2019-02-02T00:45:24.438Z,93.27
2019-02-02T00:47:53.121Z,93.87
2019-02-02T00:50:21.725Z,96.27
2019-02-02T00:52:50.365Z,92.43
2019-02-02T00:55:19.855Z,90.63
2019-02-02T00:57:53.509Z,92.03
2019-02-02T01:00:21.757Z,97.20
2019-02-02T01:02:50.433Z,86.80
2019-02-02T01:05:22.893Z,94.57
2019-02-02T01:07:52.585Z,96.73
2019-02-02T01:10:33.001Z,87.10
2019-02-02T01:13:01.646Z,88.70
2019-02-02T01:15:30.332Z,88.80
2019-02-02T01:17:59.215Z,83.67
2019-02-02T01:20:28.100Z,83.03
2019-02-02T01:22:56.785Z,90.23
2019-02-02T01:25:25.469Z,81.63
2019-02-02T01:28:04.492Z,84.50
2019-02-02T01:30:25.666Z,87.07
2019-02-02T01:32:54.277Z,76.93
2019-02-02T01:35:22.917Z,87.87
2019-02-02T01:37:51.626Z,80.53
2019-02-02T01:40:26.992Z,83.73
2019-02-02T01:42:56.296Z,88.43
2019-02-02T01:45:27.905Z,75.67
2019-02-02T01:47:56.913Z,75.37
2019-02-02T01:50:29.129Z,81.80
2019-02-02T01:52:57.807Z,82.10
2019-02-02T01:55:26.628Z,78.37
2019-02-02T01:57:55.309Z,86.13
2019-02-02T02:00:31.900Z,82.17
2019-02-02T02:03:00.682Z,77.03
2019-02-02T02:05:29.438Z,83.13
2019-02-02T02:07:58.376Z,76.30
2019-02-02T02:10:26.980Z,80.77
2019-02-02T02:12:55.453Z,79.20
2019-02-02T02:15:24.176Z,80.77
2019-02-02T02:17:52.717Z,77.03
2019-02-02T02:20:24.251Z,79.90
2019-02-02T02:22:55.484Z,80.60
2019-02-02T02:25:24.094Z,77.40
2019-02-02T02:27:52.630Z,71.87
2019-02-02T02:30:24.771Z,73.77
2019-02-02T02:32:53.816Z,76.33
2019-02-02T02:35:22.423Z,72.50
2019-02-02T02:37:51.352Z,77.70
2019-02-02T02:40:21.836Z,68.97
2019-02-02T02:42:50.547Z,70.77
2019-02-02T02:45:19.220Z,75.33
2019-02-02T02:47:48.119Z,75.50
2019-02-02T02:50:21.466Z,71.40
2019-02-02T02:52:50.385Z,71.77
2019-02-02T02:55:19.165Z,75.13
2019-02-02T02:57:49.220Z,66.10
2019-02-02T03:00:25.281Z,68.30
2019-02-02T03:02:53.961Z,71.13
2019-02-02T03:05:23.099Z,73.93
2019-02-02T03:07:53.851Z,72.53
2019-02-02T03:10:24.636Z,73.20
2019-02-02T03:12:54.046Z,74.53
2019-02-02T03:15:22.752Z,71.17
2019-02-02T03:17:51.657Z,73.73
2019-02-02T03:20:20.338Z,70.47
2019-02-02T03:22:48.973Z,67.57
2019-02-02T03:25:23.408Z,66.20
2019-02-02T03:27:52.185Z,70.80
2019-02-02T03:30:21.635Z,60.57
2019-02-02T03:32:50.522Z,66.90
2019-02-02T03:35:21.496Z,69.43
2019-02-02T03:37:50.213Z,65.53
2019-02-02T03:40:20.417Z,60.47
2019-02-02T03:42:49.325Z,65.17
2019-02-02T03:45:20.556Z,65.70
2019-02-02T03:47:49.967Z,60.27
2019-02-02T03:50:18.505Z,65.47
2019-02-02T03:52:47.161Z,62.20
2019-02-02T03:55:16.216Z,67.73
2019-02-02T03:57:44.925Z,65.27
2019-02-02T04:00:21.090Z,65.17
2019-02-02T04:02:49.974Z,67.80
2019-02-02T04:05:21.122Z,64.23
2019-02-02T04:07:49.837Z,59.60
2019-02-02T04:10:18.584Z,61.57
2019-02-02T04:12:47.268Z,64.30
2019-02-02T04:15:17.705Z,69.07
2019-02-02T04:17:46.268Z,60.73
2019-02-02T04:20:22.616Z,71.47
2019-02-02T04:22:51.697Z,65.67
2019-02-02T04:25:22.569Z,71.10
2019-02-02T04:27:51.321Z,69.30
2019-02-02T04:30:22.098Z,69.53
2019-02-02T04:32:50.781Z,71.17
2019-02-02T04:35:19.589Z,77.07
2019-02-02T04:37:48.196Z,77.23
2019-02-02T04:40:16.918Z,68.57
2019-02-02T04:42:45.912Z,76.53
2019-02-02T04:45:15.987Z,75.80
2019-02-02T04:47:44.601Z,65.27
2019-02-02T04:50:18.472Z,67.80
2019-02-02T04:52:47.013Z,64.03
2019-02-02T04:55:17.020Z,67.97
2019-02-02T04:57:45.677Z,68.03
2019-02-02T05:00:23.218Z,63.67
2019-02-02T05:02:52.032Z,60.93
2019-02-02T05:05:20.808Z,59.67
2019-02-02T05:07:49.416Z,60.53
2019-02-02T05:10:20.016Z,64.50
2019-02-02T05:12:49.356Z,60.63
2019-02-02T05:15:18.045Z,58.67
2019-02-02T05:17:46.873Z,62.03
2019-02-02T05:20:17.440Z,58.07
2019-02-02T05:22:46.121Z,56.60
2019-02-02T05:25:14.868Z,63.60
2019-02-02T05:27:43.546Z,60.77
2019-02-02T05:30:31.752Z,59.83
2019-02-02T05:33:00.289Z,66.40
2019-02-02T05:35:28.976Z,66.40
2019-02-02T05:37:57.553Z,63.70
2019-02-02T05:40:26.157Z,63.70
2019-02-02T05:42:54.698Z,61.73
2019-02-02T05:45:23.905Z,61.80
2019-02-02T05:47:52.454Z,61.83
2019-02-02T05:50:22.837Z,65.43
2019-02-02T05:52:51.853Z,66.20
2019-02-02T05:55:22.164Z,60.30
2019-02-02T05:57:50.945Z,59.03
2019-02-02T06:00:35.105Z,63.87
2019-02-02T06:03:03.650Z,62.47
2019-02-02T06:05:32.333Z,61.30
2019-02-02T06:08:00.896Z,62.30
2019-02-02T06:10:29.432Z,59.07
2019-02-02T06:12:58.208Z,63.70
2019-02-02T06:15:28.573Z,57.73
2019-02-02T06:17:57.100Z,57.77
2019-02-02T06:20:25.575Z,60.67
2019-02-02T06:22:54.136Z,58.10
2019-02-02T06:25:22.919Z,57.47
2019-02-02T06:27:51.453Z,63.53
2019-02-02T06:30:22.373Z,57.80
2019-02-02T06:32:50.978Z,62.77
2019-02-02T06:35:20.057Z,74.00
2019-02-02T06:37:48.624Z,62.73
2019-02-02T06:40:17.700Z,66.37
2019-02-02T06:42:46.505Z,70.13
2019-02-02T06:45:29.913Z,62.30
2019-02-02T06:47:58.535Z,64.30
2019-02-02T06:50:27.129Z,67.13
2019-02-02T06:52:56.236Z,64.00
2019-02-02T06:55:24.916Z,77.17
2019-02-02T06:57:53.474Z,114.17
2019-02-02T07:00:31.461Z,75.53
2019-02-02T07:03:00.196Z,78.00
2019-02-02T07:05:28.887Z,89.37
2019-02-02T07:07:57.520Z,85.73
2019-02-02T07:10:29.881Z,74.80
2019-02-02T07:12:58.681Z,73.13
2019-02-02T07:15:31.052Z,67.70
2019-02-02T07:17:59.520Z,73.10
2019-02-02T07:20:28.201Z,68.90
2019-02-02T07:22:56.870Z,64.20
2019-02-02T07:25:25.560Z,62.63
2019-02-02T07:27:54.094Z,70.83
2019-02-02T07:30:28.862Z,67.70
2019-02-02T07:32:54.578Z,62.07
2019-02-02T07:35:23.461Z,60.50
2019-02-02T07:37:52.289Z,67.53
2019-02-02T07:40:21.574Z,75.67
2019-02-02T07:42:50.499Z,70.43
2019-02-02T07:45:24.493Z,68.97
2019-02-02T07:47:53.189Z,63.90
2019-02-02T07:50:22.083Z,63.10
2019-02-02T07:52:50.773Z,58.80
2019-02-02T07:55:20.956Z,63.17
2019-02-02T07:57:49.745Z,58.30
2019-02-02T08:00:40.476Z,56.87
2019-02-02T08:03:00.072Z,63.93
2019-02-02T08:05:28.613Z,60.20
2019-02-02T08:07:57.185Z,65.63
2019-02-02T08:10:25.872Z,65.37
2019-02-02T08:13:02.324Z,58.63
2019-02-02T08:15:32.734Z,57.60
2019-02-02T08:18:01.348Z,60.87
2019-02-02T08:20:30.077Z,63.97
2019-02-02T08:22:58.690Z,64.67
2019-02-02T08:25:27.229Z,63.43
2019-02-02T08:27:55.965Z,62.43
2019-02-02T08:30:35.424Z,62.10
2019-02-02T08:33:02.446Z,59.57
2019-02-02T08:35:31.056Z,67.17
2019-02-02T08:37:59.665Z,63.10
2019-02-02T08:40:28.244Z,71.63
2019-02-02T08:45:32.771Z,66.07
2019-02-02T08:48:01.318Z,68.73
2019-02-02T08:50:32.294Z,68.07
2019-02-02T08:53:00.924Z,63.37
2019-02-02T08:55:29.580Z,64.40
2019-02-02T08:57:58.358Z,64.17
2019-02-02T09:00:27.038Z,67.40
2019-02-02T09:02:55.717Z,65.10
2019-02-02T09:05:24.669Z,62.30
2019-02-02T09:07:53.204Z,59.70
2019-02-02T09:10:23.979Z,59.37
2019-02-02T09:12:52.584Z,66.63
2019-02-02T09:15:21.302Z,62.93
2019-02-02T09:17:49.837Z,60.37
2019-02-02T09:20:18.535Z,58.17
2019-02-02T09:22:47.624Z,70.20
2019-02-02T09:25:19.281Z,67.97
2019-02-02T09:27:48.272Z,62.90
2019-02-02T09:30:25.197Z,72.53
2019-02-02T09:32:53.805Z,67.40
2019-02-02T09:35:22.418Z,77.40
2019-02-02T09:37:51.135Z,76.87
2019-02-02T09:40:20.609Z,74.20
2019-02-02T09:42:49.145Z,79.93
2019-02-02T09:45:22.016Z,78.27
2019-02-02T09:47:51.063Z,66.80
2019-02-02T09:50:22.601Z,80.83
2019-02-02T09:52:51.244Z,86.33
2019-02-02T09:55:21.548Z,81.63
2019-02-02T09:57:54.870Z,84.77
2019-02-02T10:00:24.299Z,79.40
2019-02-02T10:02:52.902Z,87.27
2019-02-02T10:05:21.572Z,81.30
2019-02-02T10:07:50.301Z,67.57
2019-02-02T10:10:23.992Z,68.07
2019-02-02T10:12:52.697Z,69.67
2019-02-02T10:15:22.478Z,65.83
2019-02-02T10:17:51.293Z,71.03
2019-02-02T10:20:25.184Z,70.30
2019-02-02T10:22:54.145Z,71.00
2019-02-02T10:25:27.870Z,63.70
2019-02-02T10:27:56.480Z,68.10
2019-02-02T10:30:30.742Z,65.23
2019-02-02T10:32:59.276Z,58.10
2019-02-02T10:35:27.981Z,63.43
2019-02-02T10:37:56.642Z,53.43
2019-02-02T10:40:25.182Z,56.30
2019-02-02T10:42:53.864Z,56.70
2019-02-02T10:45:22.573Z,57.13
2019-02-02T10:47:51.297Z,74.60
2019-02-02T10:50:24.957Z,62.90
2019-02-02T10:52:53.668Z,65.23
2019-02-02T10:55:22.202Z,68.87
2019-02-02T10:57:50.821Z,64.17
2019-02-02T11:00:27.615Z,62.30
2019-02-02T11:02:56.292Z,58.67
2019-02-02T11:05:24.992Z,55.97
2019-02-02T11:07:54.578Z,60.93
2019-02-02T11:10:26.073Z,65.03
2019-02-02T11:12:55.166Z,63.70
2019-02-02T11:15:24.496Z,62.37
2019-02-02T11:17:53.276Z,70.73
2019-02-02T11:20:27.743Z,72.53
2019-02-02T11:22:56.480Z,69.40
2019-02-02T11:25:25.123Z,66.37
2019-02-02T11:27:53.787Z,65.93
2019-02-02T11:30:23.271Z,67.97
2019-02-02T11:32:51.833Z,65.97
2019-02-02T11:35:21.768Z,74.90
2019-02-02T11:37:50.504Z,77.97
2019-02-02T11:40:26.918Z,76.60
2019-02-02T11:42:56.037Z,78.90
2019-02-02T11:45:24.718Z,70.97
2019-02-02T11:47:53.333Z,67.33
2019-02-02T11:50:22.669Z,75.40
2019-02-02T11:52:51.273Z,79.97
2019-02-02T11:55:24.936Z,88.43
2019-02-02T11:57:53.583Z,75.50
2019-02-02T12:00:36.631Z,76.37
2019-02-02T12:03:05.949Z,79.33
2019-02-02T12:05:34.633Z,80.30
2019-02-02T12:08:03.171Z,80.37
2019-02-02T12:10:34.079Z,75.93
2019-02-02T12:13:02.851Z,78.63
2019-02-02T12:15:33.031Z,72.27
2019-02-02T12:18:01.745Z,71.40
2019-02-02T12:20:33.141Z,69.90
2019-02-02T12:23:00.696Z,67.67
2019-02-02T12:25:29.461Z,73.57
2019-02-02T12:27:58.001Z,69.43
2019-02-02T12:30:31.337Z,63.03
2019-02-02T12:33:02.963Z,69.60
2019-02-02T12:35:31.907Z,66.93
2019-02-02T12:38:00.791Z,62.97
2019-02-02T12:40:30.111Z,62.60
2019-02-02T12:42:58.690Z,67.27
2019-02-02T12:45:30.080Z,63.50
2019-02-02T12:47:58.789Z,58.77
2019-02-02T12:50:27.402Z,53.97
2019-02-02T12:52:56.089Z,54.80
2019-02-02T12:55:26.011Z,56.40
2019-02-02T12:57:54.839Z,58.10
2019-02-02T13:00:23.522Z,78.77
2019-02-02T13:02:52.172Z,79.20
2019-02-02T13:05:22.869Z,81.43
2019-02-02T13:07:51.478Z,76.30
2019-02-02T13:10:25.180Z,80.47
2019-02-02T13:12:53.857Z,74.33
2019-02-02T13:15:22.489Z,70.10
2019-02-02T13:17:51.140Z,78.93
2019-02-02T13:20:19.749Z,76.83
2019-02-02T13:22:48.428Z,76.63
2019-02-02T13:25:21.905Z,75.90
2019-02-02T13:27:50.713Z,78.00
2019-02-02T13:30:22.190Z,88.60
2019-02-02T13:32:50.728Z,114.90
2019-02-02T13:35:20.306Z,88.30
2019-02-02T13:37:48.848Z,81.10
2019-02-02T13:40:19.954Z,82.27
2019-02-02T13:42:48.636Z,85.27
2019-02-02T13:45:19.253Z,89.43
2019-02-02T13:47:49.732Z,84.10
2019-02-02T13:50:19.445Z,82.50
2019-02-02T13:52:49.718Z,78.10
2019-02-02T13:55:18.435Z,87.80
2019-02-02T13:57:47.047Z,97.30
2019-02-02T14:00:21.446Z,90.67
2019-02-02T14:03:01.510Z,82.97
2019-02-02T14:05:20.589Z,87.37
2019-02-02T14:07:49.194Z,85.63
2019-02-02T14:10:20.005Z,82.00
2019-02-02T14:13:07.981Z,80.50
2019-02-02T14:15:39.215Z,83.17
2019-02-02T14:18:06.890Z,97.07
2019-02-02T14:20:35.430Z,89.97
2019-02-02T14:23:04.143Z,94.27
2019-02-02T14:25:32.679Z,87.90
2019-02-02T14:28:01.295Z,108.20
2019-02-02T14:30:30.004Z,118.07
2019-02-02T14:32:58.555Z,105.87
2019-02-02T14:35:28.650Z,106.83
2019-02-02T14:37:57.371Z,104.87
2019-02-02T14:40:25.909Z,88.67
2019-02-02T14:42:54.531Z,88.03
2019-02-02T14:45:27.275Z,94.83
2019-02-02T14:47:56.183Z,86.03
2019-02-02T14:50:25.413Z,120.77
2019-02-02T14:52:54.619Z,113.40
2019-02-02T14:55:25.214Z,136.80
2019-02-02T14:57:53.900Z,137.07
2019-02-02T15:00:27.960Z,137.30
2019-02-02T15:02:56.805Z,125.30
2019-02-02T15:05:25.553Z,114.33
2019-02-02T15:07:54.049Z,101.87
2019-02-02T15:10:23.530Z,106.27
2019-02-02T15:12:52.246Z,106.83
2019-02-02T15:15:21.072Z,122.13
2019-02-02T15:17:49.690Z,132.37
2019-02-02T15:20:29.767Z,129.03
2019-02-02T15:22:58.456Z,114.70
2019-02-02T15:25:27.164Z,124.93
2019-02-02T15:27:55.856Z,118.10
2019-02-02T15:30:26.672Z,121.07
2019-02-02T15:32:55.922Z,115.13
2019-02-02T15:35:24.552Z,125.33
2019-02-02T15:37:53.238Z,132.03
2019-02-02T15:40:21.922Z,126.87
2019-02-02T15:42:50.848Z,131.70
2019-02-02T15:45:25.330Z,130.73
2019-02-02T15:47:53.887Z,134.50
2019-02-02T15:50:22.597Z,141.00
2019-02-02T15:52:51.206Z,131.93
2019-02-02T15:55:21.612Z,152.67
2019-02-02T15:57:50.439Z,147.60
2019-02-02T16:00:22.224Z,123.97
2019-02-02T16:02:51.110Z,119.83
2019-02-02T16:05:20.754Z,124.07
2019-02-02T16:07:49.296Z,115.40
2019-02-02T16:10:23.290Z,128.23
2019-02-02T16:12:52.140Z,116.80
2019-02-02T16:15:21.197Z,120.90
2019-02-02T16:17:49.809Z,131.67
2019-02-02T16:20:20.564Z,122.47
2019-02-02T16:22:49.542Z,124.13
2019-02-02T16:25:18.185Z,128.90
2019-02-02T16:27:46.900Z,133.97
2019-02-02T16:30:24.440Z,150.73
2019-02-02T16:32:53.228Z,164.60
2019-02-02T16:35:22.112Z,154.60
2019-02-02T16:37:50.797Z,140.37
2019-02-02T16:40:27.450Z,128.00
2019-02-02T16:42:56.160Z,145.80
2019-02-02T16:45:27.188Z,135.70
2019-02-02T16:47:55.938Z,137.20
2019-02-02T16:50:24.821Z,155.97
2019-02-02T16:52:53.744Z,141.77
2019-02-02T16:55:22.548Z,143.43
2019-02-02T16:57:51.229Z,145.70
2019-02-02T17:00:25.147Z,139.63
2019-02-02T17:02:53.990Z,143.80
2019-02-02T17:05:22.647Z,140.90
2019-02-02T17:07:51.346Z,139.87
2019-02-02T17:10:25.452Z,144.87
2019-02-02T17:12:54.008Z,144.90
2019-02-02T17:15:22.709Z,149.03
2019-02-02T17:17:51.344Z,143.23
2019-02-02T17:20:24.892Z,141.00
2019-02-02T17:22:53.438Z,143.67
2019-02-02T17:25:23.121Z,146.57
2019-02-02T17:27:51.925Z,139.47
2019-02-02T17:30:25.270Z,145.97
2019-02-02T17:32:56.313Z,139.07
2019-02-02T17:35:24.990Z,148.80
2019-02-02T17:37:53.557Z,150.90
2019-02-02T17:40:24.677Z,150.87
2019-02-02T17:42:53.392Z,149.83
2019-02-02T17:45:23.159Z,150.63
2019-02-02T17:47:51.977Z,146.53
2019-02-02T17:50:22.263Z,157.20
2019-02-02T17:52:51.279Z,160.90
2019-02-02T17:55:20.000Z,155.33
2019-02-02T17:57:48.554Z,145.77
2019-02-02T18:00:22.711Z,148.67
2019-02-02T18:02:51.351Z,144.10
2019-02-02T18:05:20.101Z,168.43
2019-02-02T18:07:48.641Z,130.17
2019-02-02T18:10:17.704Z,131.13
2019-02-02T18:12:46.393Z,124.73
2019-02-02T18:15:16.077Z,134.77
2019-02-02T18:17:44.788Z,157.50
2019-02-02T18:20:15.493Z,133.17
2019-02-02T18:22:44.106Z,136.90
2019-02-02T18:25:14.543Z,139.30
2019-02-02T18:27:43.228Z,148.13
2019-02-02T18:30:14.738Z,145.43
2019-02-02T18:32:44.243Z,145.83
2019-02-02T18:35:14.833Z,146.60
2019-02-02T18:37:43.509Z,152.10
2019-02-02T18:40:15.033Z,131.07
2019-02-02T18:42:43.646Z,130.53
2019-02-02T18:45:15.194Z,129.37
2019-02-02T18:47:43.838Z,116.27
2019-02-02T18:50:14.745Z,117.73
2019-02-02T18:52:43.769Z,127.63
2019-02-02T18:55:15.530Z,126.97
2019-02-02T18:57:44.004Z,114.57
2019-02-02T19:00:18.354Z,110.53
2019-02-02T19:02:46.992Z,115.83
2019-02-02T19:05:15.813Z,101.30
2019-02-02T19:07:44.431Z,102.40
2019-02-02T19:10:21.285Z,100.30
2019-02-02T19:12:49.893Z,94.70
2019-02-02T19:15:18.505Z,102.20
2019-02-02T19:17:47.152Z,108.93
2019-02-02T19:20:18.346Z,110.40
2019-02-02T19:22:47.040Z,119.37
2019-02-02T19:25:15.682Z,114.83
2019-02-02T19:27:46.017Z,110.87
2019-02-02T19:30:20.139Z,109.97
2019-02-02T19:32:48.685Z,98.83
2019-02-02T19:35:17.293Z,89.27
2019-02-02T19:37:45.941Z,76.17
2019-02-02T19:40:15.958Z,79.23
2019-02-02T19:42:44.656Z,80.07
2019-02-02T19:45:18.393Z,84.43
2019-02-02T19:47:46.933Z,79.30
2019-02-02T19:50:22.237Z,85.83
2019-02-02T19:52:50.857Z,86.77
2019-02-02T19:55:19.529Z,92.07
2019-02-02T19:57:48.433Z,89.67
2019-02-02T20:00:22.400Z,87.90
2019-02-02T20:02:51.268Z,87.07
2019-02-02T20:05:28.126Z,85.60
2019-02-02T20:07:50.336Z,92.83
2019-02-02T20:10:20.508Z,94.23
2019-02-02T20:12:49.232Z,89.87
2019-02-02T20:15:22.870Z,97.80
2019-02-02T20:17:51.486Z,110.10
2019-02-02T20:20:22.656Z,99.03
2019-02-02T20:22:51.334Z,103.33
2019-02-02T20:25:19.945Z,106.87
2019-02-02T20:27:48.795Z,112.20
2019-02-02T20:30:31.467Z,113.60
2019-02-02T20:33:00.170Z,110.80
2019-02-02T20:35:39.771Z,115.93
2019-02-02T20:37:59.184Z,116.77
2019-02-02T20:40:28.219Z,120.23
2019-02-02T20:42:56.809Z,111.43
2019-02-02T20:45:36.933Z,118.90
2019-02-02T20:48:05.832Z,114.97
2019-02-02T20:50:34.382Z,126.90
2019-02-02T20:53:03.018Z,117.80
2019-02-02T20:55:34.714Z,170.40
2019-02-02T20:58:03.466Z,134.73
2019-02-02T21:00:32.552Z,112.77
2019-02-02T21:03:01.178Z,129.30
2019-02-02T21:05:31.737Z,137.27
2019-02-02T21:08:00.090Z,119.73
2019-02-02T21:10:28.773Z,121.30
2019-02-02T21:12:57.400Z,109.07
2019-02-02T21:15:26.121Z,107.53
2019-02-02T21:17:54.735Z,111.67
2019-02-02T21:20:25.890Z,109.03
2019-02-02T21:22:54.601Z,112.53
2019-02-02T21:25:26.438Z,114.43
2019-02-02T21:27:55.053Z,127.27
2019-02-02T21:30:28.851Z,124.63
2019-02-02T21:32:57.401Z,133.40
2019-02-02T21:35:26.092Z,127.07
2019-02-02T21:37:54.747Z,110.77
2019-02-02T21:40:27.936Z,108.23
2019-02-02T21:42:56.553Z,104.60
2019-02-02T21:45:25.442Z,108.03
2019-02-02T21:47:54.432Z,105.27
2019-02-02T21:50:24.617Z,101.40
2019-02-02T21:52:53.752Z,93.80
2019-02-02T21:55:24.142Z,105.17
2019-02-02T21:57:52.853Z,99.87
2019-02-02T22:00:27.476Z,95.93
2019-02-02T22:02:56.157Z,90.73
2019-02-02T22:05:24.701Z,106.50
2019-02-02T22:07:53.437Z,105.87
2019-02-02T22:10:22.226Z,102.70
2019-02-02T22:12:52.937Z,107.60
2019-02-02T22:15:23.152Z,112.00
2019-02-02T22:17:51.699Z,107.40
2019-02-02T22:20:20.396Z,117.67
2019-02-02T22:22:49.024Z,110.20
2019-02-02T22:25:20.176Z,112.17
2019-02-02T22:27:48.856Z,129.03
2019-02-02T22:30:22.457Z,117.70
2019-02-02T22:32:51.141Z,116.30
2019-02-02T22:35:19.753Z,110.53
2019-02-02T22:37:48.457Z,112.63
2019-02-02T22:40:22.340Z,120.23
2019-02-02T22:42:51.025Z,121.80
2019-02-02T22:45:20.644Z,113.47
2019-02-02T22:47:49.432Z,110.47
2019-02-02T22:50:19.816Z,116.17
2019-02-02T22:52:49.903Z,112.87
2019-02-02T22:55:19.790Z,113.13
2019-02-02T22:57:48.400Z,109.37
2019-02-02T23:00:30.705Z,107.07
2019-02-02T23:02:59.989Z,107.57
2019-02-02T23:05:37.375Z,104.27
2019-02-02T23:08:09.075Z,103.23
2019-02-02T23:10:43.308Z,119.43
2019-02-02T23:13:15.197Z,105.93
2019-02-02T23:15:58.981Z,121.20
2019-02-02T23:18:27.603Z,129.83
2019-02-02T23:20:56.300Z,124.03
2019-02-02T23:23:25.139Z,115.33
2019-02-02T23:25:53.824Z,127.33
2019-02-02T23:28:22.370Z,123.83
2019-02-02T23:30:51.005Z,134.93
2019-02-02T23:33:19.552Z,131.50
2019-02-02T23:35:49.548Z,140.10
2019-02-02T23:38:18.117Z,131.37
2019-02-02T23:40:46.753Z,140.20
2019-02-02T23:43:15.522Z,142.40
2019-02-02T23:45:44.145Z,138.20
2019-02-02T23:48:12.758Z,130.57
2019-02-02T23:50:41.377Z,136.10
2019-02-02T23:53:10.049Z,132.50
2019-02-02T23:55:38.593Z,131.23
2019-02-02T23:58:07.279Z,149.10
